Time;durP1;ratioP1;P1;durP2;ratioP2;P2;SDS_P1;SDS_P2;PMS_P1;PMS_P2;Temp;Humidity;BMP_temperature;BMP_pressure;BME280_temperature;BME280_humidity;BME280_pressure;Samples;Min_cycle;Max_cycle;Signal;HPM_P1;HPM_P2
2022/09/06 00:01:33;;;;;;;2.58;1.70;;;;;;;18.34;100.00;101521.03;5040793;28;20070;-69
2022/09/06 00:03:58;;;;;;;1.73;1.35;;;;;;;18.27;100.00;101525.50;5045128;28;20028;-68
2022/09/06 00:06:23;;;;;;;1.85;1.55;;;;;;;18.13;100.00;101528.19;5039479;28;20035;-68
2022/09/06 00:08:49;;;;;;;1.23;1.10;;;;;;;18.14;100.00;101539.75;5042767;28;20029;-68
2022/09/06 00:11:16;;;;;;;1.42;1.10;;;;;;;18.17;100.00;101543.28;5039370;28;20056;-67
2022/09/06 00:13:42;;;;;;;3.38;1.25;;;;;;;18.18;100.00;101547.72;5036896;28;20048;-68
2022/09/06 00:16:11;;;;;;;4.05;1.38;;;;;;;18.20;100.00;101559.25;5033164;28;20029;-67
2022/09/06 00:18:36;;;;;;;1.77;1.33;;;;;;;18.22;100.00;101579.66;5044822;28;20033;-68
2022/09/06 00:21:03;;;;;;;5.55;1.20;;;;;;;18.27;100.00;101570.78;5044774;28;20025;-68
2022/09/06 00:23:29;;;;;;;4.57;1.65;;;;;;;18.30;100.00;101580.50;5048517;28;20048;-70
2022/09/06 00:26:01;;;;;;;3.42;1.40;;;;;;;18.32;100.00;101576.97;5053128;28;20094;-68
2022/09/06 00:28:27;;;;;;;2.72;1.45;;;;;;;18.33;100.00;101585.84;5050603;28;20032;-68
2022/09/06 00:30:52;;;;;;;5.50;1.40;;;;;;;18.33;100.00;101585.84;5043283;28;20025;-69
2022/09/06 00:33:17;;;;;;;4.05;1.35;;;;;;;18.31;100.00;101588.53;5033007;28;20029;-68
2022/09/06 00:35:46;;;;;;;3.05;1.63;;;;;;;18.34;100.00;101584.97;5035474;28;20033;-68
2022/09/06 00:38:11;;;;;;;3.78;1.27;;;;;;;18.35;100.00;101584.97;5033734;28;20048;-68
2022/09/06 00:40:37;;;;;;;1.98;1.40;;;;;;;18.34;100.00;101582.31;5032835;28;20057;-68
2022/09/06 00:43:02;;;;;;;1.63;1.23;;;;;;;18.33;100.00;101580.53;5034261;28;20023;-70
2022/09/06 00:45:29;;;;;;;3.60;1.40;;;;;;;18.35;100.00;101581.38;5034421;28;20034;-69
2022/09/06 00:47:58;;;;;;;1.50;1.40;;;;;;;18.40;100.00;101570.72;5033501;28;20023;-69
2022/09/06 00:50:24;;;;;;;2.25;1.52;;;;;;;18.40;100.00;101568.94;5044984;28;20033;-69
2022/09/06 00:52:51;;;;;;;4.72;1.60;;;;;;;18.45;100.00;101563.56;5035125;28;20040;-68
2022/09/06 00:55:17;;;;;;;1.48;1.38;;;;;;;18.44;100.00;101568.03;5036017;28;20532;-69
2022/09/06 00:57:45;;;;;;;3.60;1.80;;;;;;;18.47;100.00;101552.03;5039347;28;20107;-69
2022/09/06 01:00:11;;;;;;;1.38;1.20;;;;;;;18.51;100.00;101544.91;5053788;28;20056;-69
2022/09/06 01:02:36;;;;;;;3.40;1.50;;;;;;;18.58;100.00;101535.09;5043605;28;20040;-69
2022/09/06 01:05:03;;;;;;;1.70;1.40;;;;;;;18.61;100.00;101535.06;5040691;28;20416;-70
2022/09/06 01:07:42;;;;;;;4.53;1.60;;;;;;;18.63;100.00;101533.31;5036384;28;20172;-68
2022/09/06 01:10:45;;;;;;;2.92;1.98;;;;;;;18.63;100.00;101507.53;5037009;28;20032;-68
2022/09/06 01:13:30;;;;;;;4.35;1.75;;;;;;;18.61;100.00;101503.09;5043312;28;20476;-69
2022/09/06 01:16:12;;;;;;;2.47;2.10;;;;;;;18.59;100.00;101489.78;5036563;28;20025;-69
2022/09/06 01:19:03;;;;;;;6.88;2.20;;;;;;;18.54;100.00;101484.50;5048504;28;20032;-68
2022/09/06 01:21:36;;;;;;;4.65;2.10;;;;;;;18.51;100.00;101465.81;5037895;28;20505;-70
2022/09/06 01:24:20;;;;;;;3.38;1.70;;;;;;;18.51;100.00;101459.63;5039885;28;20028;-68
2022/09/06 01:27:30;;;;;;;4.82;1.70;;;;;;;18.51;100.00;101448.97;5036274;28;20030;-70
2022/09/06 01:30:03;;;;;;;6.30;1.73;;;;;;;18.51;100.00;101443.63;5049753;28;20099;-69
2022/09/06 01:32:41;;;;;;;2.55;1.60;;;;;;;18.48;100.00;101433.88;5053499;28;20033;-69
2022/09/06 01:35:19;;;;;;;1.98;1.60;;;;;;;18.45;100.00;101441.91;5042435;28;20070;-70
2022/09/06 01:37:44;;;;;;;2.20;2.00;;;;;;;18.41;100.00;101433.91;5052997;28;20358;-69
2022/09/06 01:40:10;;;;;;;17.15;3.25;;;;;;;18.36;100.00;101420.63;5054915;28;20107;-69
2022/09/06 01:42:38;;;;;;;4.00;2.35;;;;;;;18.34;100.00;101423.31;5043094;28;20086;-69
2022/09/06 01:45:17;;;;;;;2.28;2.08;;;;;;;18.33;100.00;101412.69;5035543;28;20053;-70
2022/09/06 01:48:11;;;;;;;4.97;2.38;;;;;;;18.30;100.00;101413.56;5045174;28;20024;-69
2022/09/06 01:50:55;;;;;;;5.57;2.65;;;;;;;18.30;100.00;101418.00;5046150;28;20033;-70
2022/09/06 01:53:56;;;;;;;2.88;2.40;;;;;;;18.25;100.00;101410.03;5036996;28;20033;-69
2022/09/06 01:56:46;;;;;;;3.50;2.28;;;;;;;18.25;100.00;101414.50;5049939;28;20025;-70
2022/09/06 01:59:29;;;;;;;2.40;2.20;;;;;;;18.24;100.00;101418.94;5044272;28;20071;-69
2022/09/06 02:01:55;;;;;;;2.88;2.35;;;;;;;18.25;100.00;101419.84;5044386;28;20036;-69
2022/09/06 02:04:43;;;;;;;5.82;2.42;;;;;;;18.20;100.00;101423.41;5047574;28;20037;-69
2022/09/06 02:07:17;;;;;;;3.92;2.53;;;;;;;18.18;100.00;101411.88;5049525;28;20465;-69
2022/09/06 02:09:47;;;;;;;4.15;2.70;;;;;;;18.15;100.00;101414.56;5048385;28;20342;-69
2022/09/06 02:12:15;;;;;;;3.58;2.78;;;;;;;18.10;100.00;101421.69;5040832;28;20080;-70
2022/09/06 02:14:56;;;;;;;8.70;3.00;;;;;;;18.05;100.00;101422.59;5038624;28;20033;-70
2022/09/06 02:17:27;;;;;;;5.78;2.90;;;;;;;18.03;100.00;101435.94;5036499;28;20111;-70
2022/09/06 02:19:58;;;;;;;4.85;2.53;;;;;;;17.97;100.00;101435.94;5043497;28;20031;-69
2022/09/06 02:22:28;;;;;;;4.75;2.60;;;;;;;17.97;100.00;101441.28;5039334;28;20029;-69
2022/09/06 02:24:55;;;;;;;3.08;2.78;;;;;;;17.90;100.00;101442.16;5042251;28;20474;-69
2022/09/06 02:27:21;;;;;;;3.55;3.25;;;;;;;17.86;100.00;101449.28;5037790;28;20030;-69
2022/09/06 02:29:46;;;;;;;7.07;3.30;;;;;;;17.83;100.00;101450.16;5034922;28;20044;-69
2022/09/06 02:32:19;;;;;;;6.95;4.00;;;;;;;17.77;100.00;101454.63;5040820;28;20469;-70
2022/09/06 02:34:45;;;;;;;8.47;3.43;;;;;;;17.71;100.00;101450.22;5038731;28;20025;-70
2022/09/06 02:37:12;;;;;;;4.93;3.60;;;;;;;17.67;100.00;101443.13;5036509;28;20116;-71
2022/09/06 02:39:38;;;;;;;5.43;3.75;;;;;;;17.66;100.00;101447.56;5054425;28;20104;-69
2022/09/06 02:42:04;;;;;;;5.60;3.63;;;;;;;17.65;100.00;101451.13;5054022;28;20064;-70
2022/09/06 02:44:30;;;;;;;5.25;3.90;;;;;;;17.67;100.00;101456.44;5046899;28;20052;-70
2022/09/06 02:46:55;;;;;;;6.38;4.05;;;;;;;17.63;100.00;101462.66;5037143;28;20033;-70
2022/09/06 02:49:20;;;;;;;5.05;4.00;;;;;;;17.59;100.00;101455.56;5041410;28;20025;-70
2022/09/06 02:51:46;;;;;;;4.47;3.97;;;;;;;17.63;100.00;101449.34;5034839;28;20037;-69
2022/09/06 02:54:11;;;;;;;5.75;3.97;;;;;;;17.69;100.00;101460.00;5040472;28;20022;-70
2022/09/06 02:56:36;;;;;;;5.30;4.72;;;;;;;17.69;100.00;101462.66;5038793;28;20052;-70
2022/09/06 02:59:05;;;;;;;7.82;4.50;;;;;;;17.69;100.00;101452.00;5049493;28;20448;-69
2022/09/06 03:01:31;;;;;;;6.72;4.75;;;;;;;17.68;100.00;101458.22;5044125;28;20030;-69
2022/09/06 03:03:57;;;;;;;12.48;5.50;;;;;;;17.71;100.00;101455.53;5035283;28;20038;-69
2022/09/06 03:06:23;;;;;;;11.25;6.05;;;;;;;17.72;100.00;101467.97;5034067;28;20108;-69
2022/09/06 03:08:48;;;;;;;9.23;6.35;;;;;;;17.80;100.00;101463.50;5037182;28;20053;-69
2022/09/06 03:11:14;;;;;;;12.80;6.22;;;;;;;17.78;100.00;101473.25;5045360;28;20667;-70
2022/09/06 03:13:39;;;;;;;6.60;5.47;;;;;;;17.77;100.00;101475.91;5042084;28;20038;-69
2022/09/06 03:16:04;;;;;;;8.00;6.05;;;;;;;17.74;100.00;101476.81;5042931;28;20021;-69
2022/09/06 03:18:30;;;;;;;10.02;5.95;;;;;;;17.76;100.00;101480.38;5040727;28;20052;-70
2022/09/06 03:20:56;;;;;;;8.02;5.70;;;;;;;17.75;100.00;101475.06;5045794;28;20106;-70
2022/09/06 03:23:25;;;;;;;8.55;6.35;;;;;;;17.70;100.00;101469.72;5033929;28;20030;-70
2022/09/06 03:25:50;;;;;;;7.68;6.15;;;;;;;17.66;100.00;101473.28;5037700;28;20029;-68
2022/09/06 03:28:17;;;;;;;9.55;6.63;;;;;;;17.68;100.00;101485.69;5037190;28;20087;-70
2022/09/06 03:30:47;;;;;;;11.02;5.82;;;;;;;17.65;100.00;101492.84;5048466;28;20025;-70
2022/09/06 03:33:12;;;;;;;10.43;5.70;;;;;;;17.64;100.00;101502.56;5039373;28;20053;-70
2022/09/06 03:35:38;;;;;;;10.15;5.97;;;;;;;17.67;100.00;101501.69;5038508;28;20109;-69
2022/09/06 03:38:04;;;;;;;10.57;5.80;;;;;;;17.66;100.00;101505.22;5037479;28;20381;-69
2022/09/06 03:40:29;;;;;;;9.25;5.63;;;;;;;17.64;100.00;101507.91;5034643;28;20072;-70
2022/09/06 03:42:54;;;;;;;14.77;6.63;;;;;;;17.60;100.00;101505.25;5033517;28;20033;-70
2022/09/06 03:45:20;;;;;;;6.60;5.82;;;;;;;17.59;100.00;101511.47;5041419;28;20021;-70
2022/09/06 03:47:45;;;;;;;12.05;6.22;;;;;;;17.58;100.00;101512.34;5033923;28;20440;-70
2022/09/06 03:50:10;;;;;;;6.70;5.75;;;;;;;17.57;100.00;101515.91;5033372;28;20108;-70
2022/09/06 03:52:36;;;;;;;10.45;7.03;;;;;;;17.60;100.00;101521.22;5033568;28;20041;-70
2022/09/06 03:55:02;;;;;;;9.57;7.05;;;;;;;17.61;100.00;101518.56;5033629;28;20480;-70
2022/09/06 03:57:28;;;;;;;8.63;6.30;;;;;;;17.59;100.00;101528.31;5033705;28;20039;-70
2022/09/06 03:59:53;;;;;;;10.80;6.80;;;;;;;17.63;100.00;101531.84;5033344;28;20017;-69
2022/09/06 04:02:19;;;;;;;9.82;7.30;;;;;;;17.61;100.00;101528.31;5042458;28;20423;-68
2022/09/06 04:04:44;;;;;;;10.10;7.90;;;;;;;17.63;100.00;101515.88;5046587;28;20018;-69
2022/09/06 04:07:09;;;;;;;13.15;7.63;;;;;;;17.62;100.00;101514.09;5037113;28;20032;-70
2022/09/06 04:09:35;;;;;;;11.40;7.25;;;;;;;17.60;100.00;101515.91;5040971;28;20017;-70
2022/09/06 04:12:00;;;;;;;11.32;7.25;;;;;;;17.62;100.00;101516.75;5039244;28;20081;-70
2022/09/06 04:14:26;;;;;;;9.70;7.03;;;;;;;17.63;100.00;101519.41;5036104;28;20037;-71
2022/09/06 04:16:51;;;;;;;10.32;7.28;;;;;;;17.68;100.00;101524.75;5042199;28;20021;-70
2022/09/06 04:19:18;;;;;;;9.95;7.40;;;;;;;17.68;100.00;101524.75;5049070;28;20072;-70
2022/09/06 04:21:43;;;;;;;9.07;7.60;;;;;;;17.73;100.00;101530.06;5032995;28;20053;-69
2022/09/06 04:24:08;;;;;;;9.68;7.68;;;;;;;17.67;100.00;101541.59;5036157;28;20119;-69
2022/09/06 04:26:34;;;;;;;11.50;7.20;;;;;;;17.63;100.00;101530.06;5045894;28;20025;-69
2022/09/06 04:28:59;;;;;;;11.65;7.50;;;;;;;17.58;100.00;101533.63;5035996;28;20087;-70
2022/09/06 04:31:25;;;;;;;11.52;7.55;;;;;;;17.63;100.00;101527.41;5048040;28;20120;-70
2022/09/06 04:33:50;;;;;;;15.20;7.75;;;;;;;17.65;100.00;101535.41;5040055;28;20481;-70
2022/09/06 04:36:15;;;;;;;12.35;7.07;;;;;;;17.64;100.00;101531.84;5032876;28;20025;-70
2022/09/06 04:38:43;;;;;;;8.48;7.47;;;;;;;17.63;100.00;101521.22;5032467;28;20036;-68
2022/09/06 04:41:11;;;;;;;10.63;7.63;;;;;;;17.62;100.00;101533.63;5035494;28;20068;-69
2022/09/06 04:43:36;;;;;;;8.48;7.00;;;;;;;17.56;100.00;101527.44;5046467;28;20086;-70
2022/09/06 04:46:04;;;;;;;10.07;7.45;;;;;;;17.60;100.00;101515.91;5034229;28;20029;-70
2022/09/06 04:48:29;;;;;;;14.13;8.27;;;;;;;17.58;100.00;101520.31;5032434;28;20527;-70
2022/09/06 04:50:54;;;;;;;9.30;7.90;;;;;;;17.49;100.00;101511.47;5039985;28;20029;-70
2022/09/06 04:53:20;;;;;;;10.23;8.13;;;;;;;17.55;100.00;101509.69;5034474;28;20029;-70
2022/09/06 04:55:45;;;;;;;10.32;7.53;;;;;;;17.54;100.00;101498.19;5046124;28;20120;-70
2022/09/06 04:58:11;;;;;;;12.07;7.97;;;;;;;17.50;100.00;101499.94;5038849;28;20090;-70
2022/09/06 05:00:37;;;;;;;15.48;9.18;;;;;;;17.46;100.00;101491.97;5048255;28;20029;-71
2022/09/06 05:03:03;;;;;;;10.70;8.43;;;;;;;17.45;100.00;101490.19;5036612;28;20465;-72
2022/09/06 05:05:28;;;;;;;10.23;7.82;;;;;;;17.41;100.00;101486.66;5038942;28;20029;-71
2022/09/06 05:07:54;;;;;;;11.60;8.15;;;;;;;17.40;100.00;101479.56;5048718;28;20036;-69
2022/09/06 05:10:21;;;;;;;10.35;8.55;;;;;;;17.43;100.00;101474.25;5032446;28;20474;-68
2022/09/06 05:12:51;;;;;;;12.88;8.02;;;;;;;17.41;100.00;101476.00;5038604;28;20517;-70
2022/09/06 05:15:17;;;;;;;16.38;8.48;;;;;;;17.40;100.00;101470.69;5041260;28;20136;-69
2022/09/06 05:17:43;;;;;;;11.18;8.73;;;;;;;17.41;100.00;101472.47;5045110;28;20452;-67
2022/09/06 05:20:09;;;;;;;11.23;8.77;;;;;;;17.39;100.00;101469.81;5036245;28;20041;-68
2022/09/06 05:22:35;;;;;;;10.95;8.15;;;;;;;17.36;100.00;101468.03;5045311;28;20108;-70
2022/09/06 05:25:00;;;;;;;12.63;9.13;;;;;;;17.37;100.00;101460.94;5041050;28;20057;-70
2022/09/06 05:27:25;;;;;;;9.25;7.78;;;;;;;17.39;100.00;101452.94;5036780;28;20048;-71
2022/09/06 05:29:51;;;;;;;12.48;8.68;;;;;;;17.35;100.00;101457.41;5035170;28;20041;-71
2022/09/06 05:32:16;;;;;;;13.68;8.93;;;;;;;17.34;100.00;101455.63;5050781;28;20426;-71
2022/09/06 05:34:41;;;;;;;13.98;9.32;;;;;;;17.32;100.00;101463.63;5052813;28;20457;-68
2022/09/06 05:37:07;;;;;;;11.38;8.20;;;;;;;17.34;100.00;101458.28;5041805;28;20419;-70
2022/09/06 05:39:32;;;;;;;10.60;8.32;;;;;;;17.31;100.00;101460.97;5043470;28;20376;-70
2022/09/06 05:41:57;;;;;;;11.13;7.93;;;;;;;17.32;100.00;101454.75;5058391;28;20049;-70
2022/09/06 05:44:23;;;;;;;13.38;8.80;;;;;;;17.34;100.00;101455.63;5060610;28;20441;-70
2022/09/06 05:46:48;;;;;;;12.15;8.90;;;;;;;17.38;100.00;101449.41;5053099;28;20107;-70
2022/09/06 05:49:14;;;;;;;10.63;7.13;;;;;;;17.41;100.00;101457.38;5043788;28;20036;-70
2022/09/06 05:51:40;;;;;;;9.98;7.68;;;;;;;17.47;100.00;101456.47;5066629;28;20054;-69
2022/09/06 05:54:06;;;;;;;12.88;7.40;;;;;;;17.49;100.00;101449.41;5042932;28;20060;-70
2022/09/06 05:56:32;;;;;;;14.27;8.07;;;;;;;17.53;100.00;101446.72;5037163;28;20105;-77
2022/09/06 05:58:58;;;;;;;11.82;7.45;;;;;;;17.61;100.00;101448.50;5050497;28;20103;-71
2022/09/06 06:01:26;;;;;;;10.32;8.02;;;;;;;17.65;100.00;101452.91;5064581;28;20025;-70
2022/09/06 06:03:59;;;;;;;9.27;6.85;;;;;;;17.69;100.00;101454.66;5063864;28;20036;-71
2022/09/06 06:06:27;;;;;;;8.90;7.30;;;;;;;17.71;100.00;101452.88;5051312;28;20025;-70
2022/09/06 06:08:52;;;;;;;10.27;7.63;;;;;;;17.76;100.00;101452.88;5045065;28;20033;-70
2022/09/06 06:11:18;;;;;;;9.57;7.78;;;;;;;17.77;100.00;101457.28;5036978;28;20045;-70
2022/09/06 06:13:44;;;;;;;12.82;7.65;;;;;;;17.77;100.00;101450.22;5041250;28;20036;-71
2022/09/06 06:16:11;;;;;;;12.30;8.80;;;;;;;17.76;100.00;101437.78;5045131;28;20036;-71
2022/09/06 06:18:38;;;;;;;13.00;8.30;;;;;;;17.77;100.00;101444.88;5051963;28;20029;-70
2022/09/06 06:21:13;;;;;;;13.57;8.55;;;;;;;17.79;100.00;101445.75;5039088;28;20030;-71
2022/09/06 06:23:40;;;;;;;11.07;8.30;;;;;;;17.84;100.00;101446.63;5047990;28;20078;-69
2022/09/06 06:26:06;;;;;;;13.75;8.43;;;;;;;17.88;100.00;101439.50;5050804;28;20021;-71
2022/09/06 06:28:34;;;;;;;11.07;8.18;;;;;;;17.94;100.00;101433.31;5035086;28;20021;-70
2022/09/06 06:30:59;;;;;;;10.88;7.78;;;;;;;17.98;100.00;101429.72;5038809;28;20025;-70
2022/09/06 06:33:25;;;;;;;14.80;8.65;;;;;;;18.02;100.00;101434.16;5036530;28;20393;-70
2022/09/06 06:36:23;;;;;;;9.80;8.73;;;;;;;18.06;100.00;101425.25;5054634;28;20024;-69
2022/09/06 06:38:53;;;;;;;13.18;8.48;;;;;;;18.10;100.00;101421.69;5055428;28;20033;-70
2022/09/06 06:41:20;;;;;;;16.63;9.80;;;;;;;18.13;100.00;101426.97;5060274;28;20025;-71
2022/09/06 06:43:45;;;;;;;14.00;9.60;;;;;;;18.15;100.00;101425.22;5072716;28;20102;-70
2022/09/06 06:46:13;;;;;;;13.55;8.60;;;;;;;18.19;100.00;101420.72;5037780;28;20061;-70
2022/09/06 06:48:40;;;;;;;14.82;9.15;;;;;;;18.22;100.00;101425.16;5034747;28;20136;-71
2022/09/06 06:51:06;;;;;;;14.75;8.88;;;;;;;18.26;100.00;101429.56;5041767;28;20033;-69
2022/09/06 06:53:32;;;;;;;9.75;7.78;;;;;;;18.35;100.00;101426.84;5034494;28;20075;-70
2022/09/06 06:55:57;;;;;;;8.95;7.88;;;;;;;18.43;100.00;101430.34;5038268;28;20099;-69
2022/09/06 06:58:24;;;;;;;10.02;6.90;;;;;;;18.57;100.00;101426.72;5054943;28;20536;-70
2022/09/06 07:00:49;;;;;;;9.07;6.28;;;;;;;18.68;100.00;101427.53;5060428;28;20032;-71
2022/09/06 07:03:14;;;;;;;10.20;6.55;;;;;;;18.75;100.00;101437.25;5043547;28;20389;-71
2022/09/06 07:05:42;;;;;;;11.00;7.10;;;;;;;18.86;100.00;101435.34;5047772;28;20393;-71
2022/09/06 07:08:08;;;;;;;7.53;6.72;;;;;;;18.98;100.00;101422.88;5043914;28;20027;-71
2022/09/06 07:10:34;;;;;;;10.05;6.10;;;;;;;19.05;100.00;101435.25;5051001;28;20060;-71
2022/09/06 07:12:59;;;;;;;9.30;6.28;;;;;;;19.14;100.00;101436.94;5034801;28;20025;-71
2022/09/06 07:15:25;;;;;;;7.57;6.43;;;;;;;19.19;100.00;101433.34;5033875;28;20357;-70
2022/09/06 07:17:52;;;;;;;8.40;6.15;;;;;;;19.27;100.00;101430.56;5034719;28;20021;-69
2022/09/06 07:20:19;;;;;;;8.18;6.63;;;;;;;19.30;100.00;101427.00;5048650;28;20021;-69
2022/09/06 07:22:44;;;;;;;8.68;6.03;;;;;;;19.34;100.00;101421.63;5049585;28;20025;-69
2022/09/06 07:25:11;;;;;;;12.18;7.78;;;;;;;19.36;100.00;101413.59;5040424;28;20025;-69
2022/09/06 07:27:37;;;;;;;11.40;6.80;;;;;;;19.33;100.00;101416.28;5042917;28;20032;-69
2022/09/06 07:30:02;;;;;;;14.57;6.45;;;;;;;19.35;100.00;101417.16;5038716;28;20475;-70
2022/09/06 07:32:29;;;;;;;11.27;6.70;;;;;;;19.41;100.00;101416.19;5037335;28;20571;-69
2022/09/06 07:34:55;;;;;;;11.68;7.05;;;;;;;19.44;100.00;101422.41;5045444;28;20025;-70
2022/09/06 07:37:20;;;;;;;8.40;6.75;;;;;;;19.50;100.00;101416.97;5038013;28;20029;-69
2022/09/06 07:39:45;;;;;;;13.13;7.05;;;;;;;19.53;100.00;101410.72;5034135;28;20501;-69
2022/09/06 07:42:11;;;;;;;9.25;7.43;;;;;;;19.52;100.00;101409.84;5038285;28;20036;-69
2022/09/06 07:44:36;;;;;;;11.93;7.68;;;;;;;19.57;100.00;101408.91;5043677;28;20025;-69
2022/09/06 07:47:05;;;;;;;13.30;7.60;;;;;;;19.61;100.00;101402.63;5053085;28;20025;-69
2022/09/06 07:49:31;;;;;;;10.13;8.55;;;;;;;19.65;100.00;101413.25;5045877;28;20025;-69
2022/09/06 07:51:56;;;;;;;8.02;6.97;;;;;;;19.72;100.00;101411.38;5040027;28;20053;-69
2022/09/06 07:54:21;;;;;;;13.85;7.60;;;;;;;19.77;100.00;101419.34;5046215;28;20114;-69
2022/09/06 07:56:47;;;;;;;9.80;7.35;;;;;;;19.81;100.00;101408.63;5033449;28;20473;-69
2022/09/06 07:59:12;;;;;;;11.50;8.02;;;;;;;19.89;100.00;101413.88;5033821;28;20024;-70
2022/09/06 08:01:39;;;;;;;12.52;7.13;;;;;;;20.00;100.00;101408.41;5037806;28;20043;-69
2022/09/06 08:04:07;;;;;;;11.60;7.88;;;;;;;20.15;100.00;101416.19;5052457;28;20114;-68
2022/09/06 08:06:35;;;;;;;9.70;7.00;;;;;;;20.33;100.00;101420.41;5038799;28;20060;-69
2022/09/06 08:09:05;;;;;;;11.80;7.43;;;;;;;20.44;100.00;101422.88;5063475;28;20498;-68
2022/09/06 08:11:32;;;;;;;21.08;7.50;;;;;;;20.51;100.00;101419.25;5048845;28;20052;-69
2022/09/06 08:13:59;;;;;;;10.73;7.22;;;;;;;20.59;100.00;101428.91;5068418;28;20123;-70
2022/09/06 08:16:29;;;;;;;7.78;6.80;;;;;;;20.63;100.00;101439.56;5040277;28;20158;-70
2022/09/06 08:18:56;;;;;;;9.45;6.88;;;;;;;20.66;100.00;101438.59;5048399;28;20461;-70
2022/09/06 08:21:23;;;;;;;10.95;7.07;;;;;;;20.64;100.00;101435.97;5057468;28;20432;-70
2022/09/06 08:23:50;;;;;;;9.77;6.63;;;;;;;20.67;100.00;101441.28;5044510;28;20057;-69
2022/09/06 08:26:17;;;;;;;9.40;6.80;;;;;;;20.77;100.00;101431.34;5072359;28;20032;-70
2022/09/06 08:28:43;;;;;;;10.60;7.70;;;;;;;20.83;100.00;101435.69;5063342;28;20027;-70
2022/09/06 08:31:14;;;;;;;7.45;6.40;;;;;;;20.80;100.00;101439.31;5061082;28;20029;-68
2022/09/06 08:33:41;;;;;;;10.07;7.75;;;;;;;20.74;100.00;101435.84;5034075;28;20044;-68
2022/09/06 08:36:07;;;;;;;9.63;6.72;;;;;;;20.70;100.00;101432.31;5066506;28;20111;-69
2022/09/06 08:38:33;;;;;;;10.07;6.78;;;;;;;20.77;100.00;101438.47;5047432;28;20086;-70
2022/09/06 08:41:23;;;;;;;8.55;6.05;;;;;;;20.90;100.00;101434.69;5057631;28;20467;-69
2022/09/06 08:43:54;;;;;;;8.88;6.20;;;;;;;21.02;100.00;101425.56;5044688;28;20073;-69
2022/09/06 08:46:36;;;;;;;10.77;6.75;;;;;;;21.13;100.00;101431.59;5063952;28;20032;-69
2022/09/06 08:49:01;;;;;;;8.13;5.80;;;;;;;21.19;100.00;101431.50;5050281;28;20123;-69
2022/09/06 08:51:39;;;;;;;8.43;5.38;;;;;;;21.32;100.00;101434.81;5050919;28;20496;-68
2022/09/06 08:54:24;;;;;;;6.22;5.03;;;;;;;21.48;100.00;101418.47;5042146;28;20025;-69
2022/09/06 08:57:02;;;;;;;8.93;4.63;;;;;;;21.65;100.00;101424.41;5044531;28;20419;-69
2022/09/06 08:59:33;;;;;;;7.60;4.97;;;;;;;21.73;100.00;101418.88;5052682;28;20508;-69
2022/09/06 09:02:12;;;;;;;6.50;4.20;;;;;;;21.82;100.00;101432.06;5041913;28;20469;-70
2022/09/06 09:04:44;;;;;;;8.38;4.03;;;;;;;21.78;100.00;101433.06;5032708;28;20037;-70
2022/09/06 09:07:39;;;;;;;5.65;3.85;;;;;;;21.75;100.00;101427.78;5032575;28;20021;-69
2022/09/06 09:10:13;;;;;;;6.00;3.83;;;;;;;21.86;100.00;101430.22;5027647;28;20033;-69
2022/09/06 09:12:44;;;;;;;10.43;3.33;;;;;;;21.99;100.00;101425.47;5033889;28;20037;-70
2022/09/06 09:15:13;;;;;;;7.95;4.05;;;;;;;22.09;100.00;101432.41;5034445;28;20422;-69
2022/09/06 09:17:38;;;;;;;5.68;3.67;;;;;;;22.13;100.00;101431.44;5042823;28;20033;-69
2022/09/06 09:20:07;;;;;;;7.78;3.88;;;;;;;22.22;100.00;101433.03;5037100;28;20128;-70
2022/09/06 09:22:32;;;;;;;4.43;3.17;;;;;;;22.37;100.00;101442.56;5035370;28;20418;-70
2022/09/06 09:24:59;;;;;;;6.03;4.13;;;;;;;22.38;100.00;101452.34;5036592;28;20031;-71
2022/09/06 09:27:27;;;;;;;8.80;4.55;;;;;;;22.46;100.00;101439.63;5036802;28;20026;-70
2022/09/06 09:29:52;;;;;;;9.40;3.97;;;;;;;22.46;100.00;101446.81;5036464;28;20124;-70
2022/09/06 09:32:32;;;;;;;6.40;3.77;;;;;;;22.60;100.00;101438.44;5045799;28;20100;-71
2022/09/06 09:35:31;;;;;;;8.98;4.88;;;;;;;22.39;100.00;101443.38;5052180;28;20288;-71
2022/09/06 09:38:07;;;;;;;9.23;4.63;;;;;;;22.43;100.00;101442.41;5041192;28;20071;-70
2022/09/06 09:40:40;;;;;;;6.75;4.18;;;;;;;22.59;100.00;101455.47;5054326;28;20021;-70
2022/09/06 09:43:13;;;;;;;10.25;5.68;;;;;;;22.65;100.00;101463.34;5050936;28;20037;-69
2022/09/06 09:45:38;;;;;;;10.50;5.18;;;;;;;22.80;100.00;101462.97;5049179;28;20425;-70
2022/09/06 09:48:30;;;;;;;10.23;5.60;;;;;;;22.93;100.00;101468.06;5039526;28;20100;-70
2022/09/06 09:51:24;;;;;;;9.20;4.90;;;;;;;23.05;100.00;101457.00;5034883;28;20464;-71
2022/09/06 09:53:54;;;;;;;10.07;5.05;;;;;;;23.09;100.00;101458.69;5037385;28;20037;-70
2022/09/06 09:56:29;;;;;;;8.80;5.10;;;;;;;22.89;100.00;101464.56;5053709;28;20093;-70
2022/09/06 09:58:57;;;;;;;7.38;4.57;;;;;;;22.61;100.00;101464.34;5046329;28;20562;-70
2022/09/06 10:01:29;;;;;;;8.80;5.28;;;;;;;22.45;100.00;101459.34;5046536;28;20033;-69
2022/09/06 10:04:11;;;;;;;8.18;5.18;;;;;;;22.37;100.00;101448.78;5038577;28;20026;-69
2022/09/06 10:06:37;;;;;;;6.68;4.35;;;;;;;22.52;100.00;101447.56;5035039;28;20068;-71
2022/09/06 10:09:14;;;;;;;7.65;4.90;;;;;;;22.76;100.00;101439.81;5035490;28;20104;-70
2022/09/06 10:11:51;;;;;;;7.53;5.28;;;;;;;23.03;100.00;101459.72;5044246;28;20520;-71
2022/09/06 10:14:32;;;;;;;8.65;5.60;;;;;;;23.10;100.00;101459.56;5046715;28;20072;-70
2022/09/06 10:16:58;;;;;;;7.78;5.43;;;;;;;23.29;100.00;101454.59;5036088;28;20136;-70
2022/09/06 10:19:37;;;;;;;6.60;4.32;;;;;;;23.61;100.00;101468.97;5040618;28;20100;-70
2022/09/06 10:22:20;;;;;;;8.48;5.20;;;;;;;23.95;100.00;101459.97;5055017;28;20503;-71
2022/09/06 10:25:04;;;;;;;8.98;5.18;;;;;;;24.14;100.00;101466.56;5054780;28;20017;-71
2022/09/06 10:27:32;;;;;;;8.85;5.50;;;;;;;24.22;100.00;101469.00;5053242;28;20056;-70
2022/09/06 10:30:06;;;;;;;8.02;5.10;;;;;;;24.17;100.00;101458.41;5051249;28;20091;-70
2022/09/06 10:32:57;;;;;;;6.57;4.68;;;;;;;24.21;100.00;101468.16;5042305;28;20139;-70
2022/09/06 10:35:29;;;;;;;7.95;5.50;;;;;;;24.32;100.00;101469.59;5051261;28;20124;-70
2022/09/06 10:38:20;;;;;;;12.15;5.68;;;;;;;24.18;100.00;101473.59;5054495;28;20056;-70
2022/09/06 10:41:21;;;;;;;6.53;4.68;;;;;;;24.55;100.00;101471.56;5047318;28;20076;-70
2022/09/06 10:43:58;;;;;;;8.07;4.95;;;;;;;24.80;100.00;101482.47;5043180;28;20075;-70
2022/09/06 10:46:25;;;;;;;9.70;5.45;;;;;;;24.69;100.00;101481.94;5047441;28;20029;-70
2022/09/06 10:48:52;;;;;;;6.93;4.95;;;;;;;24.77;100.00;101497.81;5035511;28;20060;-71
2022/09/06 10:51:40;;;;;;;11.07;5.43;;;;;;;24.58;100.00;101488.50;5041134;28;20039;-70
2022/09/06 10:54:09;;;;;;;10.77;5.63;;;;;;;24.13;100.00;101491.66;5054589;28;20432;-69
2022/09/06 10:57:07;;;;;;;7.38;5.20;;;;;;;24.03;100.00;101496.44;5052757;28;20124;-69
2022/09/06 10:59:34;;;;;;;11.77;6.03;;;;;;;24.06;100.00;101498.16;5048426;28;20021;-71
2022/09/06 11:02:06;;;;;;;11.90;6.28;;;;;;;24.00;100.00;101487.59;5045707;28;20025;-71
2022/09/06 11:04:40;;;;;;;8.20;6.15;;;;;;;23.89;100.00;101488.78;5038235;28;20493;-71
2022/09/06 11:07:12;;;;;;;15.05;6.45;;;;;;;24.37;100.00;101491.88;5050838;28;20021;-70
2022/09/06 11:09:44;;;;;;;7.60;5.38;;;;;;;24.70;100.00;101479.19;5049915;28;20037;-70
2022/09/06 11:12:17;;;;;;;7.28;4.75;;;;;;;25.10;100.00;101474.28;5035839;28;20432;-70
2022/09/06 11:14:42;;;;;;;9.88;5.28;;;;;;;25.33;100.00;101486.97;5043107;28;20030;-70
2022/09/06 11:17:18;;;;;;;6.78;4.82;;;;;;;25.48;100.00;101482.88;5044340;28;20374;-71
2022/09/06 11:19:46;;;;;;;7.57;5.45;;;;;;;25.74;100.00;101487.28;5035309;28;20473;-70
2022/09/06 11:22:46;;;;;;;6.60;5.30;;;;;;;25.81;100.00;101497.88;5049100;28;20385;-70
2022/09/06 11:25:33;;;;;;;6.90;5.00;;;;;;;26.13;100.00;101496.69;5034334;28;20072;-70
2022/09/06 11:28:02;;;;;;;8.43;4.60;;;;;;;26.32;100.00;101499.56;5034714;28;20029;-69